Time;durP1;ratioP1;P1;durP2;ratioP2;P2;SDS_P1;SDS_P2;PMS_P1;PMS_P2;Temp;Humidity;BMP_temperature;BMP_pressure;BME280_temperature;BME280_humidity;BME280_pressure;Samples;Min_cycle;Max_cycle;Signal;HPM_P1;HPM_P2
2022/03/28 04:42:21;;;;;;;31.20;11.45;;;;;;;1.94;53.92;100934.88;5006878;28;106650;-76
2022/03/28 04:44:46;;;;;;;30.70;9.93;;;;;;;2.02;54.00;100935.25;5004141;28;106088;-75
2022/03/28 04:47:11;;;;;;;42.92;12.13;;;;;;;2.16;54.72;100936.13;5003761;28;106313;-75
2022/03/28 04:49:37;;;;;;;31.55;14.23;;;;;;;2.28;54.90;100940.63;5003910;28;106004;-74
2022/03/28 04:52:02;;;;;;;29.35;13.88;;;;;;;2.41;54.97;100935.44;5003039;28;106023;-76
2022/03/28 04:54:27;;;;;;;24.35;13.32;;;;;;;2.56;55.51;100935.34;5004732;28;106037;-75
2022/03/28 04:56:53;;;;;;;31.90;14.43;;;;;;;2.73;55.59;100934.28;5003638;28;106297;-76
2022/03/28 04:59:18;;;;;;;24.10;10.52;;;;;;;2.86;55.22;100927.25;5003680;28;106004;-76
2022/03/28 05:01:43;;;;;;;27.55;12.75;;;;;;;2.99;55.21;100943.06;5003999;28;113200;-75
2022/03/28 05:04:09;;;;;;;25.38;11.65;;;;;;;3.12;55.28;100933.41;5004734;28;106208;-75
2022/03/28 05:06:34;;;;;;;48.08;19.55;;;;;;;3.28;55.51;100927.94;5002449;28;112277;-75
2022/03/28 05:08:59;;;;;;;44.08;18.55;;;;;;;3.38;54.92;100913.19;5002347;28;119131;-76
2022/03/28 05:11:25;;;;;;;34.33;14.90;;;;;;;3.45;54.62;100923.31;5006073;28;105934;-78
2022/03/28 05:13:51;;;;;;;32.80;21.30;;;;;;;3.52;55.02;100919.28;5003477;28;105952;-75
2022/03/28 05:16:17;;;;;;;36.22;18.70;;;;;;;3.62;54.64;100922.13;5004154;28;106178;-74
2022/03/28 05:18:42;;;;;;;36.45;19.85;;;;;;;3.71;54.69;100924.94;5003694;28;106600;-77
2022/03/28 05:21:08;;;;;;;41.40;19.75;;;;;;;3.80;54.90;100920.84;5003124;28;106076;-80
2022/03/28 05:23:34;;;;;;;33.60;16.45;;;;;;;3.88;54.48;100920.28;5004080;28;105917;-77
2022/03/28 05:25:59;;;;;;;29.50;14.38;;;;;;;3.97;54.46;100913.53;5003275;28;106096;-80
2022/03/28 05:28:24;;;;;;;34.40;16.35;;;;;;;4.03;54.50;100915.69;5003410;28;115124;-78
2022/03/28 05:30:51;;;;;;;35.03;16.38;;;;;;;4.14;54.29;100914.94;5003163;28;106053;-76
2022/03/28 05:33:16;;;;;;;30.67;13.43;;;;;;;4.24;54.44;100902.78;5003958;28;105893;-75
2022/03/28 05:35:43;;;;;;;35.60;14.75;;;;;;;4.37;54.47;100908.84;5003327;28;106230;-77
2022/03/28 05:38:09;;;;;;;29.77;15.40;;;;;;;4.51;54.17;100906.97;5003346;28;106607;-76
2022/03/28 05:40:34;;;;;;;29.40;15.40;;;;;;;4.67;54.24;100919.88;5003232;28;106099;-79
2022/03/28 05:43:00;;;;;;;27.38;12.15;;;;;;;4.84;53.89;100902.78;5003516;28;106535;-80
2022/03/28 05:45:26;;;;;;;33.80;14.25;;;;;;;4.99;53.72;100906.06;5002100;28;106001;-70
2022/03/28 05:47:51;;;;;;;36.10;16.33;;;;;;;5.14;53.44;100901.41;5002239;28;107893;-69
2022/03/28 05:50:16;;;;;;;38.55;16.38;;;;;;;5.31;53.29;100906.25;5002623;28;106202;-69
2022/03/28 05:52:42;;;;;;;50.60;18.48;;;;;;;5.49;53.15;100900.50;4995946;28;106657;-70
2022/03/28 05:55:08;;;;;;;33.08;16.10;;;;;;;5.69;53.26;100899.75;4989860;28;107272;-72
2022/03/28 05:57:33;;;;;;;37.35;16.27;;;;;;;5.89;52.61;100894.69;4989603;28;106039;-78
2022/03/28 05:59:58;;;;;;;44.50;17.75;;;;;;;6.11;52.57;100893.84;4989506;28;106386;-71
2022/03/28 06:02:24;;;;;;;37.85;16.73;;;;;;;6.29;52.25;100886.22;4990415;28;106116;-72
2022/03/28 06:04:50;;;;;;;44.38;16.42;;;;;;;6.50;52.00;100894.19;4990081;28;106433;-72
2022/03/28 06:07:15;;;;;;;45.85;17.33;;;;;;;6.71;51.65;100888.94;4989719;28;105810;-74
2022/03/28 06:09:40;;;;;;;40.60;16.67;;;;;;;6.92;51.39;100882.81;4989635;28;106375;-74
2022/03/28 06:12:07;;;;;;;33.67;14.98;;;;;;;7.15;51.55;100878.22;4990462;28;106130;-73
2022/03/28 06:14:32;;;;;;;36.67;14.70;;;;;;;7.38;50.94;100870.94;4989751;28;106147;-75
2022/03/28 06:16:57;;;;;;;40.05;13.90;;;;;;;7.63;50.78;100874.09;4988875;28;106148;-76
2022/03/28 06:19:23;;;;;;;39.05;15.43;;;;;;;7.87;50.40;100870.25;4989293;28;105911;-76
2022/03/28 06:21:48;;;;;;;33.45;14.90;;;;;;;8.14;50.17;100870.44;4990255;28;106891;-73
2022/03/28 06:24:13;;;;;;;28.55;14.40;;;;;;;8.43;50.06;100868.78;4987520;28;106165;-76
2022/03/28 06:26:40;;;;;;;35.20;13.65;;;;;;;8.53;48.52;100869.69;4988756;28;106046;-76
2022/03/28 06:29:05;;;;;;;21.75;11.40;;;;;;;8.58;48.18;100855.97;4989275;28;106281;-76
2022/03/28 06:31:31;;;;;;;28.25;13.13;;;;;;;8.61;48.57;100859.19;4990256;28;105906;-76
2022/03/28 06:34:01;;;;;;;28.88;13.30;;;;;;;8.78;49.02;100854.97;4988680;28;110544;-74
2022/03/28 06:36:31;;;;;;;21.83;9.70;;;;;;;9.02;48.71;100852.81;4989223;28;106517;-75
2022/03/28 06:38:57;;;;;;;24.35;11.68;;;;;;;9.20;48.18;100845.78;4989529;28;106074;-75
2022/03/28 06:41:22;;;;;;;22.10;10.20;;;;;;;9.39;48.16;100846.69;4988997;28;106049;-77
2022/03/28 06:43:48;;;;;;;19.80;9.90;;;;;;;9.55;47.49;100840.72;4988854;28;106128;-77
2022/03/28 06:46:13;;;;;;;17.33;10.05;;;;;;;9.78;47.68;100838.50;4988869;28;106008;-77
2022/03/28 06:48:39;;;;;;;18.27;9.40;;;;;;;10.01;47.13;100841.59;4988442;28;110228;-76
2022/03/28 06:51:06;;;;;;;17.83;9.00;;;;;;;10.28;46.89;100839.88;4989878;28;106032;-79
2022/03/28 06:53:32;;;;;;;13.40;8.40;;;;;;;10.52;46.45;100835.75;4989901;28;106197;-78
2022/03/28 06:55:59;;;;;;;11.70;6.93;;;;;;;10.74;46.33;100831.75;4989023;28;106065;-78
2022/03/28 06:58:24;;;;;;;13.55;7.05;;;;;;;10.99;45.69;100828.28;4989571;28;106259;-77
2022/03/28 07:00:50;;;;;;;15.32;7.28;;;;;;;11.24;45.13;100830.25;4988683;28;105990;-76
2022/03/28 07:03:16;;;;;;;12.82;7.15;;;;;;;11.51;45.17;100815.88;4988715;28;106492;-75
2022/03/28 07:05:42;;;;;;;13.27;6.93;;;;;;;11.87;44.83;100822.81;4987923;28;106100;-74
2022/03/28 07:08:08;;;;;;;12.82;6.35;;;;;;;12.10;43.54;100828.41;4988289;28;106066;-76
2022/03/28 07:10:33;;;;;;;11.98;6.30;;;;;;;12.36;43.25;100822.91;4988332;28;106139;-81
2022/03/28 07:12:59;;;;;;;9.38;5.90;;;;;;;12.53;42.98;100811.22;4987468;28;106293;-73
2022/03/28 07:15:26;;;;;;;10.27;5.93;;;;;;;12.74;42.66;100811.69;4988220;28;106899;-75
2022/03/28 07:18:02;;;;;;;12.07;7.18;;;;;;;12.94;42.40;100804.97;4988144;28;106032;-72
2022/03/28 07:20:29;;;;;;;12.68;6.68;;;;;;;12.96;41.24;100810.16;4989956;28;106004;-78
2022/03/28 07:22:56;;;;;;;11.27;6.47;;;;;;;13.08;41.45;100814.16;4987424;28;106340;-75
2022/03/28 07:25:23;;;;;;;10.65;6.22;;;;;;;13.24;41.51;100812.41;4988697;28;109032;-80
2022/03/28 07:27:50;;;;;;;13.43;6.15;;;;;;;13.46;41.29;100806.31;4987537;28;106346;-77
2022/03/28 07:30:17;;;;;;;15.57;9.70;;;;;;;13.73;40.95;100800.69;4989128;28;105972;-77
2022/03/28 07:32:42;;;;;;;10.63;5.43;;;;;;;13.90;40.35;100798.75;4989023;28;106322;-74
2022/03/28 07:35:09;;;;;;;9.02;4.13;;;;;;;14.12;39.63;100802.44;4988570;28;106828;-80
2022/03/28 07:37:35;;;;;;;11.48;5.82;;;;;;;14.33;39.45;100802.59;4988475;28;106129;-75
2022/03/28 07:40:02;;;;;;;12.38;6.85;;;;;;;14.48;39.20;100794.63;4988755;28;106124;-73
2022/03/28 07:42:28;;;;;;;13.32;7.03;;;;;;;14.55;39.45;100784.81;4988797;28;105963;-75
2022/03/28 07:44:56;;;;;;;9.75;4.82;;;;;;;14.67;38.89;100793.28;4988551;28;106452;-73
2022/03/28 07:47:25;;;;;;;14.32;6.25;;;;;;;14.72;39.18;100785.53;4988368;28;105868;-80
2022/03/28 07:49:55;;;;;;;12.25;6.68;;;;;;;14.92;39.03;100776.13;4989221;28;106007;-80
2022/03/28 07:52:21;;;;;;;8.95;5.53;;;;;;;15.34;38.89;100778.13;4988704;28;105747;-71
2022/03/28 07:54:48;;;;;;;13.02;6.85;;;;;;;15.80;38.75;100771.69;4988135;28;105994;-72
2022/03/28 07:57:14;;;;;;;11.60;6.90;;;;;;;16.18;37.53;100779.50;4988497;28;106216;-76
2022/03/28 07:59:45;;;;;;;9.45;6.25;;;;;;;16.47;37.27;100766.91;4989637;28;105846;-79
2022/03/28 08:02:11;;;;;;;9.93;6.55;;;;;;;16.68;36.77;100765.19;4988736;28;106082;-75
2022/03/28 08:04:36;;;;;;;11.15;5.47;;;;;;;17.01;36.77;100764.59;4986823;28;107135;-76
2022/03/28 08:07:05;;;;;;;10.38;6.30;;;;;;;17.33;36.01;100755.03;4988869;28;106103;-76
2022/03/28 08:09:30;;;;;;;9.73;5.47;;;;;;;17.49;35.62;100759.22;4989041;28;106045;-75
2022/03/28 08:11:56;;;;;;;7.97;5.25;;;;;;;17.50;35.16;100750.09;4988198;28;106136;-76
2022/03/28 08:14:22;;;;;;;7.95;5.30;;;;;;;17.50;35.56;100744.72;4987593;28;106898;-76
2022/03/28 08:16:49;;;;;;;11.95;5.75;;;;;;;17.59;35.58;100748.03;4987378;28;106474;-75
2022/03/28 08:19:15;;;;;;;8.75;4.80;;;;;;;17.76;35.34;100743.13;4988541;28;105853;-72
2022/03/28 08:21:41;;;;;;;7.85;5.43;;;;;;;18.23;35.15;100746.75;4988057;28;106430;-75
2022/03/28 08:24:06;;;;;;;9.48;5.60;;;;;;;18.73;34.68;100732.78;4987757;28;105747;-73
2022/03/28 08:26:31;;;;;;;7.80;4.57;;;;;;;19.23;34.17;100723.28;4988077;28;105786;-73
2022/03/28 08:28:57;;;;;;;7.25;4.85;;;;;;;19.41;32.93;100723.44;4989049;28;105949;-75
2022/03/28 08:31:22;;;;;;;6.72;4.22;;;;;;;19.27;32.59;100725.38;4988328;28;106321;-74
2022/03/28 08:33:48;;;;;;;8.63;5.70;;;;;;;19.03;33.00;100720.69;4987820;28;105944;-76
2022/03/28 08:36:13;;;;;;;9.38;5.28;;;;;;;18.82;33.40;100724.44;4987561;28;106127;-75
2022/03/28 08:38:39;;;;;;;6.72;4.55;;;;;;;18.98;33.03;100710.53;4988556;28;105980;-75
2022/03/28 08:41:11;;;;;;;10.07;6.88;;;;;;;19.05;33.19;100715.91;4987777;28;106297;-75
2022/03/28 08:43:36;;;;;;;7.05;4.90;;;;;;;19.48;33.18;100712.59;4986910;28;106002;-75
2022/03/28 08:46:02;;;;;;;6.95;5.13;;;;;;;20.00;32.57;100708.94;4986637;28;105745;-76
2022/03/28 08:48:33;;;;;;;9.05;5.43;;;;;;;20.68;31.66;100704.56;4987913;28;105815;-75
2022/03/28 08:50:59;;;;;;;9.35;5.20;;;;;;;21.26;30.87;100706.81;4986953;28;106062;-74
2022/03/28 08:53:24;;;;;;;8.98;5.43;;;;;;;21.89;29.77;100703.88;4986767;28;106688;-73
2022/03/28 08:55:49;;;;;;;12.80;4.97;;;;;;;22.95;28.70;100703.03;4986530;28;106008;-74
2022/03/28 08:58:15;;;;;;;10.70;5.22;;;;;;;25.54;25.95;100704.06;4987669;28;106024;-77
2022/03/28 09:00:42;;;;;;;12.65;5.22;;;;;;;28.84;22.79;100696.91;4987054;28;106228;-76
2022/03/28 09:03:07;;;;;;;7.85;5.60;;;;;;;31.64;19.48;100686.50;4986951;28;107924;-76
2022/03/28 09:05:35;;;;;;;7.53;5.03;;;;;;;33.66;17.24;100686.88;4986329;28;106562;-76
2022/03/28 09:08:02;;;;;;;8.63;5.07;;;;;;;35.65;15.58;100694.53;4987198;28;106123;-75
2022/03/28 09:10:33;;;;;;;8.55;5.18;;;;;;;37.84;13.82;100696.09;4986809;28;106167;-77
2022/03/28 09:13:11;;;;;;;8.40;5.32;;;;;;;39.26;12.65;100685.56;4987217;28;106705;-75
2022/03/28 09:15:56;;;;;;;10.20;5.30;;;;;;;40.21;12.36;100692.50;4987121;28;106079;-76
2022/03/28 09:18:31;;;;;;;7.95;4.85;;;;;;;41.11;11.65;100684.22;4987731;28;106359;-75
2022/03/28 09:20:59;;;;;;;8.02;5.60;;;;;;;40.88;11.22;100686.09;4988394;28;105951;-71
2022/03/28 09:23:38;;;;;;;10.93;5.80;;;;;;;40.04;11.33;100688.03;4987386;28;106793;-79
2022/03/28 09:26:24;;;;;;;5.55;4.43;;;;;;;40.58;11.13;100683.81;4987021;28;106259;-74
2022/03/28 09:28:53;;;;;;;6.85;5.40;;;;;;;40.38;11.10;100672.59;4991197;28;105897;-80
2022/03/28 09:31:27;;;;;;;9.13;4.50;;;;;;;40.34;10.83;100663.31;4990364;28;106196;-75
2022/03/28 09:33:57;;;;;;;6.32;4.78;;;;;;;39.94;10.88;100683.81;4989934;28;107995;-74
2022/03/28 09:36:50;;;;;;;9.88;6.60;;;;;;;39.62;10.56;100667.06;4989864;28;106045;-77
2022/03/28 09:39:34;;;;;;;10.45;5.47;;;;;;;39.67;10.57;100671.56;4991398;28;105839;-75
2022/03/28 09:42:05;;;;;;;6.28;5.15;;;;;;;39.97;10.02;100660.81;4990398;28;105883;-74
2022/03/28 09:44:39;;;;;;;6.38;5.07;;;;;;;39.93;10.08;100654.31;4991219;28;106808;-79
2022/03/28 09:47:09;;;;;;;9.30;5.60;;;;;;;40.17;10.21;100653.34;4989186;28;106011;-79
2022/03/28 09:49:35;;;;;;;5.78;5.13;;;;;;;40.34;9.94;100649.38;4990483;28;105910;-77
2022/03/28 09:52:03;;;;;;;7.47;5.25;;;;;;;40.92;9.81;100640.28;4989967;28;106117;-74
2022/03/28 09:54:30;;;;;;;7.32;4.80;;;;;;;41.35;9.14;100637.59;4989826;28;107138;-73
2022/03/28 09:57:08;;;;;;;7.90;5.13;;;;;;;42.15;9.10;100644.59;4989407;28;106330;-74
2022/03/28 09:59:40;;;;;;;7.57;5.05;;;;;;;42.10;8.75;100634.53;4990880;28;106049;-76
2022/03/28 10:02:19;;;;;;;8.90;5.53;;;;;;;42.54;8.47;100630.41;4989566;28;106525;-78
2022/03/28 10:04:47;;;;;;;9.13;5.60;;;;;;;42.88;8.63;100624.88;4990188;28;107652;-73
2022/03/28 10:07:12;;;;;;;7.22;5.55;;;;;;;43.02;8.32;100619.44;4989920;28;105812;-72
2022/03/28 10:09:39;;;;;;;8.65;6.13;;;;;;;42.78;8.70;100621.53;4990425;28;106577;-75
2022/03/28 10:12:06;;;;;;;6.60;5.40;;;;;;;43.82;8.08;100618.25;4989068;28;105980;-73
2022/03/28 10:14:32;;;;;;;7.13;5.40;;;;;;;44.50;7.87;100603.09;4989254;28;106093;-77
2022/03/28 10:17:02;;;;;;;5.82;4.88;;;;;;;46.02;7.15;100598.66;4989644;28;106132;-79
2022/03/28 10:19:30;;;;;;;11.82;5.95;;;;;;;46.76;6.75;100594.03;4989758;28;105934;-78
2022/03/28 10:21:57;;;;;;;7.13;4.60;;;;;;;47.30;6.47;100587.31;4989409;28;106199;-79
2022/03/28 10:24:25;;;;;;;7.38;4.80;;;;;;;48.62;5.80;100606.25;4988421;28;106267;-77
2022/03/28 10:26:56;;;;;;;7.82;5.78;;;;;;;49.29;5.70;100588.78;4988643;28;105917;-79
2022/03/28 10:29:22;;;;;;;8.68;5.57;;;;;;;49.01;5.59;100590.81;4987359;28;106365;-75
2022/03/28 10:31:59;;;;;;;7.03;4.78;;;;;;;48.76;5.70;100586.28;4989837;28;106122;-75
2022/03/28 10:34:48;;;;;;;8.68;5.43;;;;;;;48.87;5.63;100583.34;4988575;28;106724;-74
2022/03/28 10:37:50;;;;;;;6.95;5.55;;;;;;;49.56;5.28;100573.78;4986482;28;106231;-77
2022/03/28 10:40:21;;;;;;;7.03;5.35;;;;;;;50.61;4.81;100578.28;4988376;28;106130;-79
2022/03/28 10:43:02;;;;;;;7.55;5.53;;;;;;;51.26;4.45;100569.09;4977531;28;106464;-73
2022/03/28 10:45:36;;;;;;;8.55;5.72;;;;;;;50.83;4.52;100563.63;4969585;28;105953;-79
2022/03/28 10:48:02;;;;;;;7.15;5.45;;;;;;;49.49;4.78;100556.91;4981688;28;106197;-76
2022/03/28 10:50:36;;;;;;;7.20;5.10;;;;;;;49.70;4.71;100552.94;4979068;28;106079;-76
2022/03/28 10:53:12;;;;;;;6.63;5.03;;;;;;;50.55;4.54;100546.03;4985642;28;106573;-78
2022/03/28 10:55:45;;;;;;;6.55;4.72;;;;;;;50.44;4.57;100543.41;4989315;28;106660;-81
2022/03/28 10:58:18;;;;;;;7.07;5.25;;;;;;;51.17;4.32;100540.56;4989421;28;106205;-78
2022/03/28 11:01:08;;;;;;;6.80;5.60;;;;;;;49.94;4.39;100531.06;4989688;28;106406;-81
2022/03/28 11:03:34;;;;;;;7.93;5.65;;;;;;;49.22;5.30;100523.81;4989594;28;105961;-78
2022/03/28 11:06:00;;;;;;;6.72;5.63;;;;;;;48.63;4.68;100520.25;4989220;28;107792;-82
2022/03/28 11:08:39;;;;;;;9.15;4.95;;;;;;;48.81;4.65;100513.53;4989594;28;106100;-78
2022/03/28 11:11:15;;;;;;;8.57;5.43;;;;;;;48.30;4.69;100505.75;4990099;28;106086;-78
2022/03/28 11:13:41;;;;;;;7.38;5.25;;;;;;;48.63;4.50;100500.47;4988760;28;106203;-80
2022/03/28 11:16:17;;;;;;;10.38;5.35;;;;;;;48.05;4.65;100498.34;4988078;28;106074;-76
2022/03/28 11:18:42;;;;;;;7.25;5.18;;;;;;;47.69;4.67;100504.34;4988489;28;107764;-77
2022/03/28 11:21:11;;;;;;;6.85;5.40;;;;;;;47.87;4.88;100494.94;4989103;28;106400;-76
2022/03/28 11:23:42;;;;;;;7.07;5.57;;;;;;;47.62;4.78;100490.31;4987755;28;106151;-74
2022/03/28 11:26:08;;;;;;;7.95;6.10;;;;;;;47.23;4.98;100481.00;4987586;28;106565;-74
2022/03/28 11:28:34;;;;;;;9.65;5.25;;;;;;;47.92;4.75;100480.34;4987486;28;106183;-80
2022/03/28 11:31:11;;;;;;;7.90;5.55;;;;;;;48.45;4.70;100470.41;4989023;28;105958;-77
2022/03/28 11:33:46;;;;;;;7.80;4.93;;;;;;;49.51;4.45;100464.69;4985779;28;106315;-78
2022/03/28 11:36:20;;;;;;;6.68;5.13;;;;;;;50.67;3.70;100456.69;4987949;28;108000;-82
2022/03/28 11:38:50;;;;;;;9.02;4.85;;;;;;;51.05;3.55;100454.16;4986422;28;106714;-78
2022/03/28 11:41:19;;;;;;;7.90;4.60;;;;;;;49.94;3.84;100452.56;4989124;28;106015;-72
2022/03/28 11:43:49;;;;;;;7.15;4.93;;;;;;;49.78;3.75;100447.63;4988503;28;106189;-75
2022/03/28 11:46:20;;;;;;;7.50;4.60;;;;;;;48.12;4.08;100446.59;4986619;28;110702;-75
2022/03/28 11:49:08;;;;;;;7.00;4.43;;;;;;;47.36;4.35;100441.00;4988021;28;106197;-83
2022/03/28 11:51:35;;;;;;;;;;;;;;;48.94;4.23;100427.72;4988991;28;105894;-74
2022/03/28 11:54:05;;;;;;;6.57;4.53;;;;;;;50.51;3.62;100434.78;4987965;28;106195;-74
2022/03/28 11:56:33;;;;;;;5.70;4.18;;;;;;;51.15;3.71;100423.91;4988494;28;106831;-73
2022/03/28 11:59:00;;;;;;;6.68;4.90;;;;;;;52.14;3.39;100426.44;4987934;28;106108;-75
2022/03/28 12:01:25;;;;;;;8.98;5.40;;;;;;;50.51;3.38;100417.78;4988579;28;106075;-73
2022/03/28 12:03:50;;;;;;;6.50;4.57;;;;;;;50.72;3.42;100400.28;4988409;28;106192;-74
2022/03/28 12:06:45;;;;;;;7.55;4.88;;;;;;;51.23;3.12;100418.84;4987743;28;106654;-71
2022/03/28 12:09:15;;;;;;;6.05;4.63;;;;;;;49.51;3.64;100393.19;4982995;28;106115;-72
2022/03/28 12:11:47;;;;;;;9.38;4.88;;;;;;;49.02;4.18;100379.53;4988687;28;106481;-79
2022/03/28 12:14:13;;;;;;;6.70;5.60;;;;;;;49.21;3.96;100384.41;4986919;28;106114;-77
2022/03/28 12:16:50;;;;;;;7.07;5.30;;;;;;;49.13;4.11;100369.63;4987348;28;106337;-76
2022/03/28 12:19:23;;;;;;;7.65;5.00;;;;;;;50.47;3.77;100364.00;4987592;28;106398;-78
2022/03/28 12:21:50;;;;;;;10.43;4.53;;;;;;;51.16;3.62;100351.75;4987816;28;106457;-80
2022/03/28 12:24:16;;;;;;;6.68;4.50;;;;;;;51.97;2.98;100346.16;4987180;28;106020;-76
2022/03/28 12:26:43;;;;;;;7.47;5.93;;;;;;;50.88;3.06;100342.75;4987227;28;106620;-77
2022/03/28 12:29:12;;;;;;;7.82;4.88;;;;;;;49.83;3.23;100335.09;4987686;28;106258;-77
2022/03/28 12:31:41;;;;;;;10.50;5.00;;;;;;;49.13;3.84;100332.84;4988078;28;105856;-77
2022/03/28 12:34:07;;;;;;;7.20;4.32;;;;;;;49.66;3.43;100335.06;4987757;28;106008;-79
2022/03/28 12:36:34;;;;;;;6.55;4.68;;;;;;;49.99;3.36;100323.84;4987187;28;106166;-80
2022/03/28 12:39:06;;;;;;;9.05;4.47;;;;;;;49.64;3.16;100320.56;4987748;28;106103;-73
2022/03/28 12:41:31;;;;;;;7.00;4.72;;;;;;;49.53;3.21;100311.47;4988924;28;106344;-72
2022/03/28 12:43:57;;;;;;;7.15;5.10;;;;;;;48.93;3.45;100306.59;4987650;28;106174;-79
2022/03/28 12:46:23;;;;;;;5.63;4.03;;;;;;;48.00;3.78;100303.19;4987203;28;106326;-76
2022/03/28 12:48:50;;;;;;;8.15;5.22;;;;;;;47.41;3.93;100308.78;4986673;28;108174;-77
2022/03/28 12:51:27;;;;;;;9.95;4.70;;;;;;;47.62;4.10;100295.63;4987601;28;106214;-77
2022/03/28 12:54:06;;;;;;;7.95;5.57;;;;;;;47.97;4.23;100293.56;4987838;28;106184;-73
2022/03/28 12:56:51;;;;;;;9.20;5.50;;;;;;;47.26;4.38;100284.78;4985637;28;106374;-74
2022/03/28 12:59:20;;;;;;;8.93;5.55;;;;;;;46.53;4.75;100272.59;4987199;28;106254;-74
2022/03/28 13:01:47;;;;;;;8.75;5.25;;;;;;;45.92;4.80;100268.22;4988140;28;106017;-80
2022/03/28 13:04:21;;;;;;;5.57;4.05;;;;;;;46.09;4.69;100275.69;4990967;28;105806;-80
2022/03/28 13:06:50;;;;;;;8.75;4.68;;;;;;;46.64;4.14;100255.63;4991388;28;105936;-75
2022/03/28 13:09:17;;;;;;;8.63;5.07;;;;;;;47.12;4.52;100255.53;4990617;28;106534;-74
2022/03/28 13:11:43;;;;;;;6.90;4.93;;;;;;;46.89;4.35;100253.34;4991054;28;106363;-78
2022/03/28 13:14:22;;;;;;;9.55;5.80;;;;;;;46.08;5.03;100251.59;4989844;28;106316;-80
2022/03/28 13:16:48;;;;;;;7.95;5.72;;;;;;;44.64;5.14;100252.06;4991022;28;106572;-78
2022/03/28 13:19:19;;;;;;;7.85;6.22;;;;;;;41.50;6.86;100236.13;4990799;28;106332;-81
2022/03/28 13:21:44;;;;;;;8.63;6.10;;;;;;;37.99;8.98;100226.66;4993142;28;106305;-85
2022/03/28 13:24:14;;;;;;;10.48;6.22;;;;;;;36.08;9.91;100233.41;4991712;28;106135;-78
2022/03/28 13:26:45;;;;;;;13.07;6.50;;;;;;;34.38;11.09;100228.00;4992733;28;106262;-82
2022/03/28 13:29:30;;;;;;;8.65;6.55;;;;;;;33.13;11.95;100221.16;4990416;28;107130;-79
2022/03/28 13:31:56;;;;;;;12.77;6.55;;;;;;;31.93;12.88;100214.41;4992788;28;106127;-72
2022/03/28 13:34:22;;;;;;;12.48;6.70;;;;;;;30.92;13.59;100203.47;4989495;28;106310;-76
2022/03/28 13:36:49;;;;;;;11.90;6.28;;;;;;;30.50;14.02;100205.38;4989800;28;110509;-79
2022/03/28 13:39:14;;;;;;;11.02;7.30;;;;;;;29.83;14.57;100195.50;4991208;28;105996;-76
2022/03/28 13:41:39;;;;;;;11.60;7.45;;;;;;;28.80;15.77;100196.91;4990876;28;106204;-74
2022/03/28 13:44:07;;;;;;;11.70;7.65;;;;;;;28.17;16.58;100193.16;4990336;28;106183;-76
2022/03/28 13:46:33;;;;;;;14.80;7.18;;;;;;;27.77;16.74;100186.91;4989898;28;106107;-76
2022/03/28 13:48:58;;;;;;;10.75;6.57;;;;;;;27.88;16.86;100182.16;4990343;28;106051;-77
2022/03/28 13:51:26;;;;;;;12.57;6.82;;;;;;;28.03;16.73;100169.19;4990782;28;105959;-76
2022/03/28 13:53:51;;;;;;;11.52;7.07;;;;;;;28.19;16.60;100171.78;4989822;28;106177;-77
2022/03/28 13:56:17;;;;;;;12.82;6.82;;;;;;;27.87;17.14;100184.06;4989730;28;106586;-75
2022/03/28 13:58:42;;;;;;;9.63;7.10;;;;;;;27.88;17.16;100166.56;4989797;28;105954;-75
2022/03/28 14:01:08;;;;;;;12.55;7.28;;;;;;;27.82;17.33;100167.72;4990255;28;106085;-77
2022/03/28 14:03:34;;;;;;;12.93;7.38;;;;;;;27.46;17.60;100162.50;4990413;28;106326;-76
2022/03/28 14:06:00;;;;;;;12.43;7.45;;;;;;;27.20;17.88;100157.16;4996759;28;106053;-75
2022/03/28 14:08:26;;;;;;;9.70;6.90;;;;;;;26.91;18.31;100155.09;4998360;28;106159;-77
2022/03/28 14:10:51;;;;;;;10.90;7.47;;;;;;;26.77;18.48;100154.09;5004971;28;105989;-78
2022/03/28 14:13:17;;;;;;;12.07;8.07;;;;;;;26.63;18.47;100137.47;4992343;28;106931;-74
2022/03/28 14:15:45;;;;;;;14.77;8.20;;;;;;;26.45;18.87;100142.44;5004775;28;107925;-76
2022/03/28 14:18:10;;;;;;;12.05;7.13;;;;;;;26.44;18.78;100134.50;4998004;28;106198;-74
2022/03/28 14:20:36;;;;;;;10.52;7.28;;;;;;;26.27;19.00;100123.91;4998072;28;106395;-75
2022/03/28 14:23:02;;;;;;;11.43;7.57;;;;;;;25.93;19.56;100119.84;5004714;28;106181;-74
2022/03/28 14:25:28;;;;;;;14.50;7.45;;;;;;;25.60;19.68;100127.50;4992823;28;107065;-75
2022/03/28 14:27:53;;;;;;;14.80;7.93;;;;;;;25.49;20.15;100114.91;5007446;28;106040;-74
2022/03/28 14:30:19;;;;;;;12.23;7.45;;;;;;;25.31;20.03;100122.50;5010166;28;105906;-74
2022/03/28 14:32:45;;;;;;;11.23;7.22;;;;;;;25.24;20.21;100123.88;4988130;28;106811;-76
2022/03/28 14:35:11;;;;;;;15.80;8.10;;;;;;;24.86;20.84;100107.69;5004322;28;106471;-79
2022/03/28 14:37:37;;;;;;;18.80;8.98;;;;;;;24.67;21.10;100116.34;4976093;28;106184;-76
2022/03/28 14:40:05;;;;;;;11.65;6.80;;;;;;;24.48;21.05;100106.94;4968971;28;106640;-74
2022/03/28 14:42:31;;;;;;;12.48;7.45;;;;;;;24.39;21.31;100108.56;4988416;28;105967;-74
2022/03/28 14:44:56;;;;;;;12.90;6.97;;;;;;;24.06;21.88;100094.19;4987551;28;106821;-75
2022/03/28 14:47:22;;;;;;;11.25;7.85;;;;;;;23.86;22.20;100095.69;4987813;28;106079;-75
2022/03/28 14:49:47;;;;;;;12.75;7.13;;;;;;;23.58;22.67;100099.53;4988788;28;106176;-75
2022/03/28 14:52:15;;;;;;;10.88;7.28;;;;;;;23.31;22.91;100095.78;4987656;28;106131;-74
2022/03/28 14:54:41;;;;;;;20.42;8.13;;;;;;;23.07;23.24;100091.69;4986317;28;107305;-74
2022/03/28 14:57:07;;;;;;;11.13;6.93;;;;;;;22.86;23.41;100094.19;4988064;28;106431;-74
2022/03/28 14:59:32;;;;;;;12.65;6.95;;;;;;;22.72;23.65;100092.91;4988651;28;106056;-75
2022/03/28 15:01:59;;;;;;;13.63;7.05;;;;;;;22.61;23.74;100089.28;4988273;28;106468;-76
